sensor_id;sensor_type;location;lat;lon;timestamp;pressure;altitude;pressure_sealevel;temperature
27986;BMP280;15453;53.692;10.168;2023-05-15T00:00:55;101073.19;;;19.69
27986;BMP280;15453;53.692;10.168;2023-05-15T00:03:20;101071.31;;;19.65
27986;BMP280;15453;53.692;10.168;2023-05-15T00:05:45;101071.31;;;19.65
27986;BMP280;15453;53.692;10.168;2023-05-15T00:08:11;101063.13;;;19.55
27986;BMP280;15453;53.692;10.168;2023-05-15T00:10:36;101060.13;;;19.51
27986;BMP280;15453;53.692;10.168;2023-05-15T00:13:01;101060.13;;;19.51
27986;BMP280;15453;53.692;10.168;2023-05-15T00:15:27;101064.13;;;19.45
27986;BMP280;15453;53.692;10.168;2023-05-15T00:17:52;101059.44;;;19.41
27986;BMP280;15453;53.692;10.168;2023-05-15T00:20:17;101057.28;;;19.38
27986;BMP280;15453;53.692;10.168;2023-05-15T00:22:42;101057.28;;;19.38
27986;BMP280;15453;53.692;10.168;2023-05-15T00:25:08;101049.91;;;19.28
27986;BMP280;15453;53.692;10.168;2023-05-15T00:27:34;101042.47;;;19.24
27986;BMP280;15453;53.692;10.168;2023-05-15T00:30:00;101041.69;;;19.18
27986;BMP280;15453;53.692;10.168;2023-05-15T00:32:25;101039.81;;;19.14
27986;BMP280;15453;53.692;10.168;2023-05-15T00:34:50;101039.81;;;19.14
27986;BMP280;15453;53.692;10.168;2023-05-15T00:37:15;101042.41;;;19.05
27986;BMP280;15453;53.692;10.168;2023-05-15T00:39:41;101048.03;;;19.00
27986;BMP280;15453;53.692;10.168;2023-05-15T00:42:06;101048.03;;;19.00
27986;BMP280;15453;53.692;10.168;2023-05-15T00:44:32;101031.53;;;18.90
27986;BMP280;15453;53.692;10.168;2023-05-15T00:46:59;101031.53;;;18.90
27986;BMP280;15453;53.692;10.168;2023-05-15T00:49:27;101028.00;;;18.85
27986;BMP280;15453;53.692;10.168;2023-05-15T00:51:55;101024.16;;;18.81
27986;BMP280;15453;53.692;10.168;2023-05-15T00:54:20;101025.03;;;18.76
27986;BMP280;15453;53.692;10.168;2023-05-15T00:56:46;101031.72;;;18.75
27986;BMP280;15453;53.692;10.168;2023-05-15T00:59:11;101031.72;;;18.75
27986;BMP280;15453;53.692;10.168;2023-05-15T01:01:37;101014.91;;;18.67
27986;BMP280;15453;53.692;10.168;2023-05-15T01:04:03;101022.69;;;18.65
27986;BMP280;15453;53.692;10.168;2023-05-15T01:06:29;101022.69;;;18.65
27986;BMP280;15453;53.692;10.168;2023-05-15T01:08:56;101019.97;;;18.60
27986;BMP280;15453;53.692;10.168;2023-05-15T01:11:24;101016.72;;;18.53
27986;BMP280;15453;53.692;10.168;2023-05-15T01:13:51;101012.88;;;18.49
27986;BMP280;15453;53.692;10.168;2023-05-15T01:16:16;101011.25;;;18.48
27986;BMP280;15453;53.692;10.168;2023-05-15T01:18:41;101011.25;;;18.48
27986;BMP280;15453;53.692;10.168;2023-05-15T01:21:25;101014.13;;;18.38
27986;BMP280;15453;53.692;10.168;2023-05-15T01:24:15;101014.13;;;18.38
27986;BMP280;15453;53.692;10.168;2023-05-15T01:29:43;101004.53;;;18.25
27986;BMP280;15453;53.692;10.168;2023-05-15T01:32:11;101004.53;;;18.25
27986;BMP280;15453;53.692;10.168;2023-05-15T01:37:39;101002.75;;;18.11
27986;BMP280;15453;53.692;10.168;2023-05-15T01:40:07;101004.16;;;18.08
27986;BMP280;15453;53.692;10.168;2023-05-15T01:42:35;101010.28;;;18.05
27986;BMP280;15453;53.692;10.168;2023-05-15T01:45:04;101005.63;;;18.01
27986;BMP280;15453;53.692;10.168;2023-05-15T01:47:37;101001.78;;;17.97
27986;BMP280;15453;53.692;10.168;2023-05-15T01:50:04;100998.47;;;17.95
27986;BMP280;15453;53.692;10.168;2023-05-15T01:52:35;100993.25;;;17.88
27986;BMP280;15453;53.692;10.168;2023-05-15T01:55:03;100993.25;;;17.88
27986;BMP280;15453;53.692;10.168;2023-05-15T01:57:30;100985.84;;;17.84
27986;BMP280;15453;53.692;10.168;2023-05-15T01:59:56;100983.63;;;17.81
27986;BMP280;15453;53.692;10.168;2023-05-15T02:02:22;100987.81;;;17.78
27986;BMP280;15453;53.692;10.168;2023-05-15T02:04:49;100979.56;;;17.73
27986;BMP280;15453;53.692;10.168;2023-05-15T02:07:15;100988.44;;;17.70
27986;BMP280;15453;53.692;10.168;2023-05-15T02:09:42;100990.97;;;17.67
27986;BMP280;15453;53.692;10.168;2023-05-15T02:12:08;100993.19;;;17.65
27986;BMP280;15453;53.692;10.168;2023-05-15T02:14:33;100993.19;;;17.65
27986;BMP280;15453;53.692;10.168;2023-05-15T02:16:59;100990.75;;;17.58
27986;BMP280;15453;53.692;10.168;2023-05-15T02:19:24;100984.97;;;17.55
27986;BMP280;15453;53.692;10.168;2023-05-15T02:21:50;100991.09;;;17.52
27986;BMP280;15453;53.692;10.168;2023-05-15T02:24:15;100992.78;;;17.48
27986;BMP280;15453;53.692;10.168;2023-05-15T02:26:49;100992.78;;;17.48
27986;BMP280;15453;53.692;10.168;2023-05-15T02:29:50;100987.56;;;17.41
27986;BMP280;15453;53.692;10.168;2023-05-15T02:35:42;100981.53;;;17.29
27986;BMP280;15453;53.692;10.168;2023-05-15T02:38:08;100981.53;;;17.29
27986;BMP280;15453;53.692;10.168;2023-05-15T02:40:36;100982.38;;;17.24
27986;BMP280;15453;53.692;10.168;2023-05-15T02:43:02;100982.38;;;17.24
27986;BMP280;15453;53.692;10.168;2023-05-15T02:45:28;100973.03;;;17.15
27986;BMP280;15453;53.692;10.168;2023-05-15T02:47:54;100973.03;;;17.15
27986;BMP280;15453;53.692;10.168;2023-05-15T02:50:19;100970.31;;;17.10
27986;BMP280;15453;53.692;10.168;2023-05-15T02:52:44;100973.63;;;17.07
27986;BMP280;15453;53.692;10.168;2023-05-15T02:55:10;100961.22;;;17.05
27986;BMP280;15453;53.692;10.168;2023-05-15T02:57:35;100968.16;;;17.02
27986;BMP280;15453;53.692;10.168;2023-05-15T03:00:00;100960.72;;;16.98
27986;BMP280;15453;53.692;10.168;2023-05-15T03:02:26;100964.03;;;16.95
27986;BMP280;15453;53.692;10.168;2023-05-15T03:04:51;100969.03;;;16.93
27986;BMP280;15453;53.692;10.168;2023-05-15T03:07:16;100969.03;;;16.93
27986;BMP280;15453;53.692;10.168;2023-05-15T03:09:42;100955.50;;;16.86
27986;BMP280;15453;53.692;10.168;2023-05-15T03:12:08;100959.16;;;16.82
27986;BMP280;15453;53.692;10.168;2023-05-15T03:14:33;100956.41;;;16.77
27986;BMP280;15453;53.692;10.168;2023-05-15T03:16:59;100956.41;;;16.77
27986;BMP280;15453;53.692;10.168;2023-05-15T03:19:24;100953.13;;;16.70
27986;BMP280;15453;53.692;10.168;2023-05-15T03:21:49;100949.56;;;16.64
27986;BMP280;15453;53.692;10.168;2023-05-15T03:24:15;100945.69;;;16.60
27986;BMP280;15453;53.692;10.168;2023-05-15T03:26:40;100945.16;;;16.58
27986;BMP280;15453;53.692;10.168;2023-05-15T03:29:06;100945.16;;;16.58
27986;BMP280;15453;53.692;10.168;2023-05-15T03:31:32;100944.88;;;16.55
27986;BMP280;15453;53.692;10.168;2023-05-15T03:33:57;100941.59;;;16.53
27986;BMP280;15453;53.692;10.168;2023-05-15T03:36:22;100948.25;;;16.52
27986;BMP280;15453;53.692;10.168;2023-05-15T03:38:47;100938.56;;;16.49
27986;BMP280;15453;53.692;10.168;2023-05-15T03:41:12;100945.19;;;16.48
27986;BMP280;15453;53.692;10.168;2023-05-15T03:43:38;100945.19;;;16.48
27986;BMP280;15453;53.692;10.168;2023-05-15T03:46:04;100944.09;;;16.44
27986;BMP280;15453;53.692;10.168;2023-05-15T03:48:29;100939.41;;;16.40
27986;BMP280;15453;53.692;10.168;2023-05-15T03:50:55;100943.25;;;16.39
27986;BMP280;15453;53.692;10.168;2023-05-15T03:53:20;100930.03;;;16.36
27986;BMP280;15453;53.692;10.168;2023-05-15T03:55:45;100930.03;;;16.36
27986;BMP280;15453;53.692;10.168;2023-05-15T03:58:11;100925.91;;;16.33
27986;BMP280;15453;53.692;10.168;2023-05-15T04:00:36;100930.88;;;16.31
27986;BMP280;15453;53.692;10.168;2023-05-15T04:03:01;100920.94;;;16.30
27986;BMP280;15453;53.692;10.168;2023-05-15T04:05:26;100915.69;;;16.29
27986;BMP280;15453;53.692;10.168;2023-05-15T04:07:52;100915.69;;;16.29
27986;BMP280;15453;53.692;10.168;2023-05-15T04:10:17;100921.19;;;16.29
27986;BMP280;15453;53.692;10.168;2023-05-15T04:12:43;100923.13;;;16.28
27986;BMP280;15453;53.692;10.168;2023-05-15T04:15:17;100924.25;;;16.27
27986;BMP280;15453;53.692;10.168;2023-05-15T04:17:46;100923.13;;;16.28
27986;BMP280;15453;53.692;10.168;2023-05-15T04:20:12;100923.13;;;16.28
27986;BMP280;15453;53.692;10.168;2023-05-15T04:22:39;100919.00;;;16.26
27986;BMP280;15453;53.692;10.168;2023-05-15T04:25:04;100917.34;;;16.25
27986;BMP280;15453;53.692;10.168;2023-05-15T04:27:30;100913.75;;;16.24
27986;BMP280;15453;53.692;10.168;2023-05-15T04:29:55;100924.81;;;16.24
27986;BMP280;15453;53.692;10.168;2023-05-15T04:32:20;100924.81;;;16.24
27986;BMP280;15453;53.692;10.168;2023-05-15T04:34:46;100912.66;;;16.25
27986;BMP280;15453;53.692;10.168;2023-05-15T04:37:11;100910.72;;;16.26
27986;BMP280;15453;53.692;10.168;2023-05-15T04:39:36;100914.03;;;16.28
27986;BMP280;15453;53.692;10.168;2023-05-15T04:42:02;100913.19;;;16.27
27986;BMP280;15453;53.692;10.168;2023-05-15T04:44:27;100913.19;;;16.27
27986;BMP280;15453;53.692;10.168;2023-05-15T04:46:53;100908.22;;;16.29
27986;BMP280;15453;53.692;10.168;2023-05-15T04:49:18;100908.22;;;16.29
27986;BMP280;15453;53.692;10.168;2023-05-15T04:51:43;100908.47;;;16.33
27986;BMP280;15453;53.692;10.168;2023-05-15T04:54:08;100908.19;;;16.34
27986;BMP280;15453;53.692;10.168;2023-05-15T04:56:34;100899.91;;;16.34
27986;BMP280;15453;53.692;10.168;2023-05-15T04:59:00;100901.00;;;16.38
27986;BMP280;15453;53.692;10.168;2023-05-15T05:01:25;100901.00;;;16.38
27986;BMP280;15453;53.692;10.168;2023-05-15T05:03:50;100901.56;;;16.40
27986;BMP280;15453;53.692;10.168;2023-05-15T05:06:15;100907.63;;;16.42
27986;BMP280;15453;53.692;10.168;2023-05-15T05:08:41;100907.63;;;16.42
27986;BMP280;15453;53.692;10.168;2023-05-15T05:11:06;100907.63;;;16.42
27986;BMP280;15453;53.692;10.168;2023-05-15T05:13:31;100898.22;;;16.43
27986;BMP280;15453;53.692;10.168;2023-05-15T05:15:56;100910.94;;;16.44
27986;BMP280;15453;53.692;10.168;2023-05-15T05:18:22;100906.25;;;16.45
27986;BMP280;15453;53.692;10.168;2023-05-15T05:20:47;100901.25;;;16.47
27986;BMP280;15453;53.692;10.168;2023-05-15T05:23:13;100900.69;;;16.50
27986;BMP280;15453;53.692;10.168;2023-05-15T05:25:39;100900.69;;;16.50
27986;BMP280;15453;53.692;10.168;2023-05-15T05:28:04;100896.28;;;16.49
27986;BMP280;15453;53.692;10.168;2023-05-15T05:30:29;100896.47;;;16.57
27986;BMP280;15453;53.692;10.168;2023-05-15T05:32:54;100894.00;;;16.61
27986;BMP280;15453;53.692;10.168;2023-05-15T05:35:20;100894.00;;;16.61
27986;BMP280;15453;53.692;10.168;2023-05-15T05:37:45;100905.81;;;16.71
27986;BMP280;15453;53.692;10.168;2023-05-15T05:40:11;100905.81;;;16.71
27986;BMP280;15453;53.692;10.168;2023-05-15T05:42:36;100903.88;;;16.72
27986;BMP280;15453;53.692;10.168;2023-05-15T05:45:02;100899.94;;;16.83
27986;BMP280;15453;53.692;10.168;2023-05-15T05:47:28;100901.03;;;16.87
27986;BMP280;15453;53.692;10.168;2023-05-15T05:49:53;100899.84;;;16.93
27986;BMP280;15453;53.692;10.168;2023-05-15T05:52:19;100899.00;;;16.97
27986;BMP280;15453;53.692;10.168;2023-05-15T05:54:44;100895.38;;;17.02
27986;BMP280;15453;53.692;10.168;2023-05-15T05:57:10;100895.38;;;17.02
27986;BMP280;15453;53.692;10.168;2023-05-15T05:59:36;100901.97;;;17.11
27986;BMP280;15453;53.692;10.168;2023-05-15T06:02:01;100893.91;;;17.14
27986;BMP280;15453;53.692;10.168;2023-05-15T06:04:27;100904.13;;;17.19
27986;BMP280;15453;53.692;10.168;2023-05-15T06:06:52;100898.81;;;17.23
27986;BMP280;15453;53.692;10.168;2023-05-15T06:09:18;100898.81;;;17.23
27986;BMP280;15453;53.692;10.168;2023-05-15T06:11:43;100901.19;;;17.34
27986;BMP280;15453;53.692;10.168;2023-05-15T06:14:09;100890.66;;;17.41
27986;BMP280;15453;53.692;10.168;2023-05-15T06:16:34;100885.91;;;17.47
27986;BMP280;15453;53.692;10.168;2023-05-15T06:19:00;100885.91;;;17.47
27986;BMP280;15453;53.692;10.168;2023-05-15T06:21:25;100878.03;;;17.59
27986;BMP280;15453;53.692;10.168;2023-05-15T06:23:50;100880.19;;;17.67
27986;BMP280;15453;53.692;10.168;2023-05-15T06:26:15;100880.19;;;17.67
27986;BMP280;15453;53.692;10.168;2023-05-15T06:28:41;100879.22;;;17.76
27986;BMP280;15453;53.692;10.168;2023-05-15T06:31:07;100879.22;;;17.76
27986;BMP280;15453;53.692;10.168;2023-05-15T06:33:32;100882.72;;;17.87
27986;BMP280;15453;53.692;10.168;2023-05-15T06:35:57;100874.38;;;17.92
27986;BMP280;15453;53.692;10.168;2023-05-15T06:38:22;100874.81;;;17.99
27986;BMP280;15453;53.692;10.168;2023-05-15T06:40:47;100881.97;;;18.05
27986;BMP280;15453;53.692;10.168;2023-05-15T06:43:13;100881.97;;;18.05
27986;BMP280;15453;53.692;10.168;2023-05-15T06:45:38;100874.06;;;18.17
27986;BMP280;15453;53.692;10.168;2023-05-15T06:48:03;100864.84;;;18.21
27986;BMP280;15453;53.692;10.168;2023-05-15T06:50:28;100869.72;;;18.29
27986;BMP280;15453;53.692;10.168;2023-05-15T06:52:54;100865.78;;;18.35
27986;BMP280;15453;53.692;10.168;2023-05-15T06:55:19;100861.00;;;18.41
27986;BMP280;15453;53.692;10.168;2023-05-15T06:57:44;100859.81;;;18.47
27986;BMP280;15453;53.692;10.168;2023-05-15T07:00:10;100859.16;;;18.55
27986;BMP280;15453;53.692;10.168;2023-05-15T07:02:36;100846.84;;;18.61
27986;BMP280;15453;53.692;10.168;2023-05-15T07:05:01;100846.47;;;18.67
27986;BMP280;15453;53.692;10.168;2023-05-15T07:07:27;100854.44;;;18.74
27986;BMP280;15453;53.692;10.168;2023-05-15T07:09:52;100854.44;;;18.74
27986;BMP280;15453;53.692;10.168;2023-05-15T07:12:17;100852.56;;;18.88
27986;BMP280;15453;53.692;10.168;2023-05-15T07:14:42;100840.78;;;18.96
27986;BMP280;15453;53.692;10.168;2023-05-15T07:17:08;100840.78;;;18.96
27986;BMP280;15453;53.692;10.168;2023-05-15T07:19:33;100838.72;;;19.01
27986;BMP280;15453;53.692;10.168;2023-05-15T07:21:58;100831.50;;;19.19
27986;BMP280;15453;53.692;10.168;2023-05-15T07:24:24;100831.50;;;19.19
27986;BMP280;15453;53.692;10.168;2023-05-15T07:26:49;100833.41;;;19.37
27986;BMP280;15453;53.692;10.168;2023-05-15T07:29:14;100822.75;;;19.44
27986;BMP280;15453;53.692;10.168;2023-05-15T07:31:39;100830.38;;;19.52
27986;BMP280;15453;53.692;10.168;2023-05-15T07:34:05;100826.06;;;19.59
27986;BMP280;15453;53.692;10.168;2023-05-15T07:36:31;100826.06;;;19.59
27986;BMP280;15453;53.692;10.168;2023-05-15T07:38:57;100815.97;;;19.63
27986;BMP280;15453;53.692;10.168;2023-05-15T07:41:22;100814.25;;;19.81
27986;BMP280;15453;53.692;10.168;2023-05-15T07:43:47;100806.31;;;19.88
27986;BMP280;15453;53.692;10.168;2023-05-15T07:46:13;100805.28;;;19.97
27986;BMP280;15453;53.692;10.168;2023-05-15T07:48:38;100809.81;;;20.07
27986;BMP280;15453;53.692;10.168;2023-05-15T07:51:03;100809.81;;;20.07
27986;BMP280;15453;53.692;10.168;2023-05-15T07:53:28;100806.09;;;20.25
27986;BMP280;15453;53.692;10.168;2023-05-15T07:55:54;100807.84;;;20.34
27986;BMP280;15453;53.692;10.168;2023-05-15T07:58:19;100800.72;;;20.42
27986;BMP280;15453;53.692;10.168;2023-05-15T08:00:44;100802.13;;;20.53
27986;BMP280;15453;53.692;10.168;2023-05-15T08:03:10;100800.88;;;20.59
27986;BMP280;15453;53.692;10.168;2023-05-15T08:05:35;100800.88;;;20.59
27986;BMP280;15453;53.692;10.168;2023-05-15T08:08:01;100797.97;;;20.64
27986;BMP280;15453;53.692;10.168;2023-05-15T08:10:26;100789.19;;;20.70
27986;BMP280;15453;53.692;10.168;2023-05-15T08:12:51;100792.59;;;20.89
27986;BMP280;15453;53.692;10.168;2023-05-15T08:15:16;100792.59;;;20.89
27986;BMP280;15453;53.692;10.168;2023-05-15T08:17:42;100783.91;;;21.04
27986;BMP280;15453;53.692;10.168;2023-05-15T08:20:08;100783.91;;;21.04
27986;BMP280;15453;53.692;10.168;2023-05-15T08:22:33;100775.97;;;21.20
27986;BMP280;15453;53.692;10.168;2023-05-15T08:24:59;100775.97;;;21.20
27986;BMP280;15453;53.692;10.168;2023-05-15T08:27:25;100767.81;;;21.23
27986;BMP280;15453;53.692;10.168;2023-05-15T08:29:50;100768.16;;;21.30
27986;BMP280;15453;53.692;10.168;2023-05-15T08:32:16;100774.16;;;21.46
27986;BMP280;15453;53.692;10.168;2023-05-15T08:34:42;100760.09;;;21.51
27986;BMP280;15453;53.692;10.168;2023-05-15T08:37:07;100756.00;;;21.57
27986;BMP280;15453;53.692;10.168;2023-05-15T08:39:32;100762.25;;;21.62
27986;BMP280;15453;53.692;10.168;2023-05-15T08:44:38;100755.38;;;21.68
27986;BMP280;15453;53.692;10.168;2023-05-15T08:47:04;100757.25;;;21.73
27986;BMP280;15453;53.692;10.168;2023-05-15T08:52:22;100766.34;;;21.95
27986;BMP280;15453;53.692;10.168;2023-05-15T08:54:47;100766.34;;;21.95
27986;BMP280;15453;53.692;10.168;2023-05-15T08:57:15;100751.75;;;21.98
27986;BMP280;15453;53.692;10.168;2023-05-15T08:59:40;100751.13;;;22.10
27986;BMP280;15453;53.692;10.168;2023-05-15T09:02:06;100750.00;;;22.20
27986;BMP280;15453;53.692;10.168;2023-05-15T09:04:31;100740.63;;;22.24
27986;BMP280;15453;53.692;10.168;2023-05-15T09:06:59;100740.63;;;22.24
27986;BMP280;15453;53.692;10.168;2023-05-15T09:09:26;100747.88;;;22.25
27986;BMP280;15453;53.692;10.168;2023-05-15T09:11:53;100732.59;;;22.31
27986;BMP280;15453;53.692;10.168;2023-05-15T09:14:18;100736.03;;;22.45
27986;BMP280;15453;53.692;10.168;2023-05-15T09:16:44;100736.03;;;22.45
27986;BMP280;15453;53.692;10.168;2023-05-15T09:19:11;100738.38;;;22.60
27986;BMP280;15453;53.692;10.168;2023-05-15T09:21:36;100738.53;;;22.64
27986;BMP280;15453;53.692;10.168;2023-05-15T09:24:21;100738.53;;;22.64
27986;BMP280;15453;53.692;10.168;2023-05-15T09:27:00;100734.75;;;22.77
27986;BMP280;15453;53.692;10.168;2023-05-15T09:29:27;100721.44;;;22.82
27986;BMP280;15453;53.692;10.168;2023-05-15T09:31:53;100724.56;;;22.89
27986;BMP280;15453;53.692;10.168;2023-05-15T09:34:27;100736.06;;;22.96
27986;BMP280;15453;53.692;10.168;2023-05-15T09:36:53;100731.09;;;23.02
27986;BMP280;15453;53.692;10.168;2023-05-15T09:39:21;100719.41;;;23.08
27986;BMP280;15453;53.692;10.168;2023-05-15T09:41:46;100721.34;;;23.16
27986;BMP280;15453;53.692;10.168;2023-05-15T09:44:41;100713.97;;;23.20
27986;BMP280;15453;53.692;10.168;2023-05-15T09:47:08;100713.97;;;23.20
27986;BMP280;15453;53.692;10.168;2023-05-15T09:49:33;100709.81;;;23.35
27986;BMP280;15453;53.692;10.168;2023-05-15T09:51:59;100716.69;;;23.37
27986;BMP280;15453;53.692;10.168;2023-05-15T09:54:25;100716.69;;;23.37
27986;BMP280;15453;53.692;10.168;2023-05-15T09:57:06;100709.97;;;23.38
27986;BMP280;15453;53.692;10.168;2023-05-15T09:59:31;100703.53;;;23.46
27986;BMP280;15453;53.692;10.168;2023-05-15T10:01:56;100707.63;;;23.49
27986;BMP280;15453;53.692;10.168;2023-05-15T10:04:22;100707.78;;;23.52
27986;BMP280;15453;53.692;10.168;2023-05-15T10:06:47;100707.78;;;23.52
27986;BMP280;15453;53.692;10.168;2023-05-15T10:09:14;100699.19;;;23.57
27986;BMP280;15453;53.692;10.168;2023-05-15T10:11:46;100692.06;;;23.68
27986;BMP280;15453;53.692;10.168;2023-05-15T10:14:16;100694.81;;;23.77
27986;BMP280;15453;53.692;10.168;2023-05-15T10:16:41;100692.31;;;23.84
27986;BMP280;15453;53.692;10.168;2023-05-15T10:19:08;100692.28;;;23.92
27986;BMP280;15453;53.692;10.168;2023-05-15T10:21:35;100692.28;;;23.92
27986;BMP280;15453;53.692;10.168;2023-05-15T10:24:02;100684.84;;;23.96
27986;BMP280;15453;53.692;10.168;2023-05-15T10:26:34;100691.34;;;24.09
27986;BMP280;15453;53.692;10.168;2023-05-15T10:29:04;100691.34;;;24.09
27986;BMP280;15453;53.692;10.168;2023-05-15T10:31:30;100686.81;;;24.16
27986;BMP280;15453;53.692;10.168;2023-05-15T10:33:55;100686.28;;;24.23
27986;BMP280;15453;53.692;10.168;2023-05-15T10:36:22;100690.09;;;24.39
27986;BMP280;15453;53.692;10.168;2023-05-15T10:38:48;100690.09;;;24.39
27986;BMP280;15453;53.692;10.168;2023-05-15T10:41:16;100680.25;;;24.53
27986;BMP280;15453;53.692;10.168;2023-05-15T10:43:42;100676.91;;;24.60
27986;BMP280;15453;53.692;10.168;2023-05-15T10:46:08;100675.09;;;24.64
27986;BMP280;15453;53.692;10.168;2023-05-15T10:48:34;100674.91;;;24.69
27986;BMP280;15453;53.692;10.168;2023-05-15T10:51:00;100674.91;;;24.69
27986;BMP280;15453;53.692;10.168;2023-05-15T10:53:26;100676.31;;;24.75
27986;BMP280;15453;53.692;10.168;2023-05-15T10:55:51;100676.31;;;24.75
27986;BMP280;15453;53.692;10.168;2023-05-15T10:58:21;100663.69;;;24.81
27986;BMP280;15453;53.692;10.168;2023-05-15T11:00:46;100666.66;;;24.84
27986;BMP280;15453;53.692;10.168;2023-05-15T11:03:13;100667.09;;;24.86
27986;BMP280;15453;53.692;10.168;2023-05-15T11:06:09;100667.09;;;24.86
27986;BMP280;15453;53.692;10.168;2023-05-15T11:08:39;100662.44;;;24.90
27986;BMP280;15453;53.692;10.168;2023-05-15T11:11:05;100657.69;;;24.91
27986;BMP280;15453;53.692;10.168;2023-05-15T11:19:30;100647.75;;;24.93
27986;BMP280;15453;53.692;10.168;2023-05-15T11:21:56;100651.16;;;24.99
27986;BMP280;15453;53.692;10.168;2023-05-15T11:24:53;100652.94;;;25.15
27986;BMP280;15453;53.692;10.168;2023-05-15T11:27:23;100651.88;;;25.20
27986;BMP280;15453;53.692;10.168;2023-05-15T11:30:15;100651.88;;;25.20
27986;BMP280;15453;53.692;10.168;2023-05-15T11:35:22;100637.56;;;25.33
27986;BMP280;15453;53.692;10.168;2023-05-15T11:37:49;100635.56;;;25.46
27986;BMP280;15453;53.692;10.168;2023-05-15T11:40:23;100637.53;;;25.57
27986;BMP280;15453;53.692;10.168;2023-05-15T11:45:39;100636.34;;;25.94
27986;BMP280;15453;53.692;10.168;2023-05-15T11:48:07;100636.34;;;25.94
27986;BMP280;15453;53.692;10.168;2023-05-15T11:50:33;100635.47;;;26.18
27986;BMP280;15453;53.692;10.168;2023-05-15T11:53:03;100635.47;;;26.18
27986;BMP280;15453;53.692;10.168;2023-05-15T11:55:31;100620.81;;;26.24
27986;BMP280;15453;53.692;10.168;2023-05-15T11:57:57;100619.97;;;26.36
27986;BMP280;15453;53.692;10.168;2023-05-15T12:00:23;100623.06;;;26.58
27986;BMP280;15453;53.692;10.168;2023-05-15T12:02:48;100623.38;;;26.69
27986;BMP280;15453;53.692;10.168;2023-05-15T12:05:13;100623.38;;;26.69
27986;BMP280;15453;53.692;10.168;2023-05-15T12:07:42;100613.03;;;26.73
27986;BMP280;15453;53.692;10.168;2023-05-15T12:10:09;100615.22;;;26.80
27986;BMP280;15453;53.692;10.168;2023-05-15T12:12:38;100609.78;;;26.87
27986;BMP280;15453;53.692;10.168;2023-05-15T12:15:04;100612.78;;;26.94
27986;BMP280;15453;53.692;10.168;2023-05-15T12:17:30;100612.16;;;27.00
27986;BMP280;15453;53.692;10.168;2023-05-15T12:19:56;100610.16;;;27.01
27986;BMP280;15453;53.692;10.168;2023-05-15T12:22:22;100621.41;;;27.01
27986;BMP280;15453;53.692;10.168;2023-05-15T12:24:47;100621.78;;;26.99
27986;BMP280;15453;53.692;10.168;2023-05-15T12:27:13;100616.03;;;26.96
27986;BMP280;15453;53.692;10.168;2023-05-15T12:29:39;100616.03;;;26.96
27986;BMP280;15453;53.692;10.168;2023-05-15T12:32:05;100613.06;;;26.89
27986;BMP280;15453;53.692;10.168;2023-05-15T12:34:31;100617.28;;;26.83
27986;BMP280;15453;53.692;10.168;2023-05-15T12:36:57;100617.28;;;26.83
27986;BMP280;15453;53.692;10.168;2023-05-15T12:39:24;100611.75;;;26.70
27986;BMP280;15453;53.692;10.168;2023-05-15T12:41:50;100613.09;;;26.61
27986;BMP280;15453;53.692;10.168;2023-05-15T12:44:18;100621.22;;;26.50
27986;BMP280;15453;53.692;10.168;2023-05-15T12:46:45;100616.91;;;26.41
27986;BMP280;15453;53.692;10.168;2023-05-15T12:49:10;100616.91;;;26.41
27986;BMP280;15453;53.692;10.168;2023-05-15T12:51:41;100618.84;;;26.25
27986;BMP280;15453;53.692;10.168;2023-05-15T12:54:15;100618.84;;;26.25
27986;BMP280;15453;53.692;10.168;2023-05-15T12:56:41;100613.00;;;26.18
27986;BMP280;15453;53.692;10.168;2023-05-15T12:59:06;100613.00;;;26.18
27986;BMP280;15453;53.692;10.168;2023-05-15T13:01:31;100606.03;;;26.12
27986;BMP280;15453;53.692;10.168;2023-05-15T13:03:57;100613.06;;;26.06
27986;BMP280;15453;53.692;10.168;2023-05-15T13:06:22;100606.16;;;26.03
27986;BMP280;15453;53.692;10.168;2023-05-15T13:08:47;100607.81;;;26.04
27986;BMP280;15453;53.692;10.168;2023-05-15T13:11:13;100606.38;;;26.10
27986;BMP280;15453;53.692;10.168;2023-05-15T13:13:46;100606.38;;;26.10
27986;BMP280;15453;53.692;10.168;2023-05-15T13:18:43;100597.41;;;26.32
27986;BMP280;15453;53.692;10.168;2023-05-15T13:21:08;100591.66;;;26.56
27986;BMP280;15453;53.692;10.168;2023-05-15T13:23:33;100594.44;;;26.68
27986;BMP280;15453;53.692;10.168;2023-05-15T13:25:59;100589.31;;;26.86
27986;BMP280;15453;53.692;10.168;2023-05-15T13:28:24;100585.31;;;27.03
27986;BMP280;15453;53.692;10.168;2023-05-15T13:30:49;100578.88;;;27.18
27986;BMP280;15453;53.692;10.168;2023-05-15T13:33:15;100585.22;;;27.30
27986;BMP280;15453;53.692;10.168;2023-05-15T13:35:40;100581.41;;;27.38
27986;BMP280;15453;53.692;10.168;2023-05-15T13:38:07;100581.94;;;27.44
27986;BMP280;15453;53.692;10.168;2023-05-15T13:40:33;100577.22;;;27.48
27986;BMP280;15453;53.692;10.168;2023-05-15T13:43:01;100581.31;;;27.50
27986;BMP280;15453;53.692;10.168;2023-05-15T13:45:26;100582.84;;;27.48
27986;BMP280;15453;53.692;10.168;2023-05-15T13:47:53;100582.84;;;27.48
27986;BMP280;15453;53.692;10.168;2023-05-15T13:50:19;100589.56;;;27.43
27986;BMP280;15453;53.692;10.168;2023-05-15T13:52:45;100588.66;;;27.39
27986;BMP280;15453;53.692;10.168;2023-05-15T13:55:10;100588.66;;;27.39
27986;BMP280;15453;53.692;10.168;2023-05-15T13:57:36;100596.03;;;27.28
27986;BMP280;15453;53.692;10.168;2023-05-15T14:00:03;100596.03;;;27.28
27986;BMP280;15453;53.692;10.168;2023-05-15T14:02:31;100606.53;;;27.16
27986;BMP280;15453;53.692;10.168;2023-05-15T14:04:56;100593.81;;;27.06
27986;BMP280;15453;53.692;10.168;2023-05-15T14:07:21;100601.19;;;26.95
27986;BMP280;15453;53.692;10.168;2023-05-15T14:09:47;100603.34;;;26.86